createdAt,value
2024-04-25T00:00:34.794Z,94128.00
2024-04-25T00:01:34.814Z,94128.00
2024-04-25T00:02:35.066Z,94125.00
2024-04-25T00:03:35.036Z,94122.00
2024-04-25T00:04:35.112Z,94125.00
2024-04-25T00:05:35.175Z,94122.00
2024-04-25T00:06:35.272Z,94124.00
2024-04-25T00:07:35.323Z,94120.00
2024-04-25T00:08:35.471Z,94124.00
2024-04-25T00:09:35.504Z,94122.00
2024-04-25T00:10:35.580Z,94120.00
2024-04-25T00:11:35.768Z,94120.00
2024-04-25T00:12:35.750Z,94120.00
2024-04-25T00:13:35.800Z,94117.00
2024-04-25T00:14:35.965Z,94117.00
2024-04-25T00:15:35.997Z,94113.00
2024-04-25T00:16:36.128Z,94115.00
2024-04-25T00:17:36.239Z,94114.00
2024-04-25T00:18:36.238Z,94115.00
2024-04-25T00:19:36.289Z,94116.00
2024-04-25T00:20:36.443Z,94116.00
2024-04-25T00:21:36.461Z,94114.00
2024-04-25T00:22:36.556Z,94117.00
2024-04-25T00:23:36.657Z,94115.00
2024-04-25T00:24:36.739Z,94119.00
2024-04-25T00:25:36.839Z,94116.00
2024-04-25T00:26:36.957Z,94116.00
2024-04-25T00:27:36.953Z,94118.00
2024-04-25T00:28:37.039Z,94119.00
2024-04-25T00:29:37.145Z,94116.00
2024-04-25T00:30:37.229Z,94116.00
2024-04-25T00:31:37.292Z,94116.00
2024-04-25T00:32:37.493Z,94115.00
2024-04-25T00:33:37.690Z,94115.00
2024-04-25T00:34:37.483Z,94115.00
2024-04-25T00:35:37.631Z,94113.00
2024-04-25T00:36:37.596Z,94114.00
2024-04-25T00:37:37.620Z,94112.00
2024-04-25T00:38:37.732Z,94113.00
2024-04-25T00:39:37.709Z,94112.00
2024-04-25T00:40:37.843Z,94115.00
2024-04-25T00:41:37.871Z,94113.00
2024-04-25T00:42:37.817Z,94110.00
2024-04-25T00:43:37.849Z,94109.00
2024-04-25T00:44:37.965Z,94107.00
2024-04-25T00:45:37.915Z,94106.00
2024-04-25T00:46:37.944Z,94107.00
2024-04-25T00:47:38.075Z,94105.00
2024-04-25T00:48:38.161Z,94104.00
2024-04-25T00:49:38.061Z,94109.00
2024-04-25T00:50:38.231Z,94106.00
2024-04-25T00:51:38.238Z,94105.00
2024-04-25T00:52:38.296Z,94106.00
2024-04-25T00:53:38.447Z,94106.00
2024-04-25T00:54:38.484Z,94101.00
2024-04-25T00:55:38.550Z,94103.00
2024-04-25T00:56:38.685Z,94103.00
2024-04-25T00:57:38.734Z,94104.00
2024-04-25T00:58:38.801Z,94103.00
2024-04-25T00:59:38.921Z,94106.00
2024-04-25T01:00:39.030Z,94103.00
2024-04-25T01:01:39.063Z,94102.00
2024-04-25T01:02:39.264Z,94101.00
2024-04-25T01:03:39.308Z,94102.00
2024-04-25T01:04:39.339Z,94100.00
2024-04-25T01:05:39.433Z,94100.00
2024-04-25T01:06:39.533Z,94101.00
2024-04-25T01:07:39.587Z,94102.00
2024-04-25T01:08:39.752Z,94105.00
2024-04-25T01:09:39.771Z,94105.00
2024-04-25T01:10:39.897Z,94105.00
2024-04-25T01:11:40.017Z,94104.00
2024-04-25T01:12:40.041Z,94103.00
2024-04-25T01:13:40.100Z,94103.00
2024-04-25T01:14:40.262Z,94102.00
2024-04-25T01:15:40.297Z,94101.00
2024-04-25T01:16:40.395Z,94102.00
2024-04-25T01:17:40.537Z,94101.00
2024-04-25T01:18:40.534Z,94102.00
2024-04-25T01:19:40.630Z,94100.00
2024-04-25T01:20:40.805Z,94099.00
2024-04-25T01:21:40.770Z,94099.00
2024-04-25T01:22:40.886Z,94099.00
2024-04-25T01:23:40.998Z,94100.00
2024-04-25T01:24:41.083Z,94101.00
2024-04-25T01:25:41.156Z,94106.00
2024-04-25T01:26:41.284Z,94103.00
2024-04-25T01:27:41.341Z,94103.00
2024-04-25T01:28:41.436Z,94103.00
2024-04-25T01:29:41.548Z,94104.00
2024-04-25T01:30:41.621Z,94104.00
2024-04-25T01:31:41.694Z,94105.00
2024-04-25T01:32:41.892Z,94104.00
2024-04-25T01:33:41.936Z,94103.00
2024-04-25T01:34:41.940Z,94101.00
2024-04-25T01:35:42.104Z,94101.00
2024-04-25T01:36:42.127Z,94100.00
2024-04-25T01:37:42.262Z,94098.00
2024-04-25T01:38:42.394Z,94098.00
2024-04-25T01:39:43.452Z,94100.00
2024-04-25T01:40:42.496Z,94101.00
2024-04-25T01:41:42.633Z,94104.00
2024-04-25T01:42:42.674Z,94105.00
2024-04-25T01:43:42.758Z,94106.00
2024-04-25T01:44:42.840Z,94105.00
2024-04-25T01:45:42.975Z,94104.00
2024-04-25T01:46:43.034Z,94104.00
2024-04-25T01:47:43.175Z,94105.00
2024-04-25T01:48:43.811Z,94103.00
2024-04-25T01:49:43.297Z,94102.00
2024-04-25T01:50:43.463Z,94101.00
2024-04-25T01:51:43.500Z,94101.00
2024-04-25T01:52:43.593Z,94101.00
2024-04-25T01:53:43.694Z,94100.00
2024-04-25T01:54:43.790Z,94097.00
2024-04-25T01:55:43.895Z,94097.00
2024-04-25T01:56:44.191Z,94098.00
2024-04-25T01:57:44.042Z,94096.00
2024-04-25T01:58:44.141Z,94097.00
2024-04-25T01:59:44.225Z,94095.00
2024-04-25T02:00:44.392Z,94097.00
2024-04-25T02:01:44.423Z,94095.00
2024-04-25T02:02:44.581Z,94096.00
2024-04-25T02:03:44.630Z,94094.00
2024-04-25T02:04:44.705Z,94093.00
2024-04-25T02:05:44.940Z,94089.00
2024-04-25T02:06:44.893Z,94087.00
2024-04-25T02:07:44.981Z,94083.00
2024-04-25T02:08:45.087Z,94086.00
2024-04-25T02:09:45.174Z,94084.00
2024-04-25T02:10:45.295Z,94086.00
2024-04-25T02:11:45.463Z,94083.00
2024-04-25T02:12:45.463Z,94087.00
2024-04-25T02:13:45.538Z,94086.00
2024-04-25T02:14:45.639Z,94088.00
2024-04-25T02:15:45.754Z,94089.00
2024-04-25T02:16:45.790Z,94086.00
2024-04-25T02:17:46.033Z,94088.00
2024-04-25T02:18:46.085Z,94086.00
2024-04-25T02:19:46.060Z,94087.00
2024-04-25T02:20:46.174Z,94081.00
2024-04-25T02:21:46.239Z,94079.00
2024-04-25T02:22:46.357Z,94077.00
2024-04-25T02:23:46.424Z,94077.00
2024-04-25T02:24:46.506Z,94076.00
2024-04-25T02:25:46.620Z,94075.00
2024-04-25T02:26:46.696Z,94077.00
2024-04-25T02:27:46.930Z,94078.00
2024-04-25T02:28:46.857Z,94080.00
2024-04-25T02:29:47.002Z,94079.00
2024-04-25T02:30:47.081Z,94080.00
2024-04-25T02:31:47.168Z,94080.00
2024-04-25T02:32:47.302Z,94081.00
2024-04-25T02:33:47.326Z,94079.00
2024-04-25T02:34:47.436Z,94079.00
2024-04-25T02:35:47.510Z,94083.00
2024-04-25T02:36:47.593Z,94082.00
2024-04-25T02:37:47.699Z,94083.00
2024-04-25T02:38:47.789Z,94086.00
2024-04-25T02:39:48.776Z,94085.00
2024-04-25T02:40:47.993Z,94086.00
2024-04-25T02:41:48.064Z,94088.00
2024-04-25T02:42:48.175Z,94086.00
2024-04-25T02:43:48.249Z,94086.00
2024-04-25T02:44:48.346Z,94085.00
2024-04-25T02:45:48.853Z,94084.00
2024-04-25T02:46:48.520Z,94085.00
2024-04-25T02:47:48.708Z,94086.00
2024-04-25T02:48:48.789Z,94087.00
2024-04-25T02:49:48.801Z,94086.00
2024-04-25T02:50:48.914Z,94088.00
2024-04-25T02:51:49.008Z,94089.00
2024-04-25T02:52:49.094Z,94089.00
2024-04-25T02:53:49.215Z,94088.00
2024-04-25T02:54:49.284Z,94087.00
2024-04-25T02:55:49.388Z,94090.00
2024-04-25T02:56:49.458Z,94087.00
2024-04-25T02:57:49.547Z,94090.00
2024-04-25T02:58:50.293Z,94087.00
2024-04-25T02:59:49.727Z,94089.00
2024-04-25T03:00:49.860Z,94088.00
2024-04-25T03:01:49.934Z,94090.00
2024-04-25T03:02:50.126Z,94090.00
2024-04-25T03:03:50.131Z,94092.00
2024-04-25T03:04:50.222Z,94091.00
2024-04-25T03:05:50.306Z,94094.00
2024-04-25T03:06:50.394Z,94095.00
2024-04-25T03:07:50.466Z,94093.00
2024-04-25T03:08:50.564Z,94097.00
2024-04-25T03:09:50.688Z,94096.00
2024-04-25T03:10:50.766Z,94098.00
2024-04-25T03:11:50.883Z,94099.00
2024-04-25T03:12:50.943Z,94099.00
2024-04-25T03:13:51.047Z,94100.00
2024-04-25T03:14:51.130Z,94100.00
2024-04-25T03:15:51.240Z,94100.00
2024-04-25T03:16:51.336Z,94102.00
2024-04-25T03:17:51.519Z,94103.00
2024-04-25T03:18:51.633Z,94103.00
2024-04-25T03:19:51.592Z,94100.00
2024-04-25T03:20:51.700Z,94103.00
2024-04-25T03:21:51.809Z,94104.00
2024-04-25T03:22:51.879Z,94101.00
2024-04-25T03:23:52.003Z,94102.00
2024-04-25T03:24:52.075Z,94104.00
2024-04-25T03:25:52.192Z,94102.00
2024-04-25T03:26:52.250Z,94102.00
2024-04-25T03:27:52.371Z,94102.00
2024-04-25T03:28:52.493Z,94100.00
2024-04-25T03:29:52.548Z,94099.00
2024-04-25T03:30:52.656Z,94099.00
2024-04-25T03:31:52.824Z,94100.00
2024-04-25T03:32:52.961Z,94101.00
2024-04-25T03:33:52.930Z,94099.00
2024-04-25T03:34:53.033Z,94099.00
2024-04-25T03:35:53.120Z,94098.00
2024-04-25T03:36:53.189Z,94098.00
2024-04-25T03:37:53.325Z,94099.00
2024-04-25T03:38:53.414Z,94100.00
2024-04-25T03:39:53.496Z,94100.00
2024-04-25T03:40:53.570Z,94102.00
2024-04-25T03:41:53.677Z,94101.00
2024-04-25T03:42:53.786Z,94101.00
2024-04-25T03:43:53.890Z,94103.00
2024-04-25T03:44:53.995Z,94105.00
2024-04-25T03:45:54.070Z,94104.00
2024-04-25T03:46:54.180Z,94104.00
2024-04-25T03:47:54.363Z,94104.00
2024-04-25T03:48:54.434Z,94106.00
2024-04-25T03:49:54.482Z,94106.00
2024-04-25T03:50:54.601Z,94105.00
2024-04-25T03:51:54.646Z,94106.00
2024-04-25T03:52:54.727Z,94104.00
2024-04-25T03:53:54.910Z,94106.00
2024-04-25T03:54:54.918Z,94103.00
2024-04-25T03:55:55.027Z,94105.00
2024-04-25T03:56:55.098Z,94105.00
2024-04-25T03:57:55.228Z,94107.00
2024-04-25T03:58:55.281Z,94107.00
2024-04-25T03:59:55.385Z,94108.00
2024-04-25T04:00:55.571Z,94112.00
2024-04-25T04:01:55.588Z,94112.00
2024-04-25T04:02:55.705Z,94114.00
2024-04-25T04:03:55.813Z,94111.00
2024-04-25T04:04:55.835Z,94112.00
2024-04-25T04:05:56.334Z,94113.00
2024-04-25T04:06:56.098Z,94113.00
2024-04-25T04:07:56.143Z,94113.00
2024-04-25T04:08:56.244Z,94110.00
2024-04-25T04:09:56.324Z,94114.00
2024-04-25T04:10:56.437Z,94112.00
2024-04-25T04:11:56.569Z,94111.00
2024-04-25T04:12:56.615Z,94112.00
2024-04-25T04:13:56.734Z,94114.00
2024-04-25T04:14:56.793Z,94112.00
2024-04-25T04:15:56.953Z,94112.00
2024-04-25T04:16:57.008Z,94110.00
2024-04-25T04:18:04.214Z,94109.00
2024-04-25T04:19:04.161Z,94106.00
2024-04-25T04:20:04.149Z,94106.00
2024-04-25T04:21:04.162Z,94106.00
2024-04-25T04:22:04.183Z,94110.00
2024-04-25T04:23:04.153Z,94112.00
2024-04-25T04:24:04.146Z,94113.00
2024-04-25T04:25:04.151Z,94116.00
2024-04-25T04:26:04.174Z,94115.00
2024-04-25T04:27:04.178Z,94117.00
2024-04-25T04:28:04.166Z,94120.00
2024-04-25T04:29:04.165Z,94118.00
2024-04-25T04:30:04.156Z,94121.00
2024-04-25T04:31:11.350Z,94124.00
2024-04-25T04:32:11.406Z,94124.00
2024-04-25T04:33:11.475Z,94125.00
2024-04-25T04:34:11.372Z,94121.00
2024-04-25T04:35:11.398Z,94121.00
2024-04-25T04:36:11.353Z,94123.00
2024-04-25T04:37:11.358Z,94123.00
2024-04-25T04:38:11.367Z,94123.00
2024-04-25T04:39:11.335Z,94125.00
2024-04-25T04:40:11.352Z,94124.00
2024-04-25T04:41:11.367Z,94125.00
2024-04-25T04:42:11.330Z,94127.00
2024-04-25T04:43:11.376Z,94126.00
2024-04-25T04:44:11.416Z,94127.00
2024-04-25T04:45:11.340Z,94126.00
2024-04-25T04:46:11.348Z,94129.00
2024-04-25T04:47:11.524Z,94127.00
2024-04-25T04:48:16.152Z,94127.00
2024-04-25T04:49:12.356Z,94129.00
2024-04-25T04:50:11.379Z,94128.00
2024-04-25T04:51:11.352Z,94127.00
2024-04-25T04:52:11.350Z,94128.00
2024-04-25T04:53:11.384Z,94126.00
2024-04-25T04:54:11.359Z,94128.00
2024-04-25T04:55:11.372Z,94129.00
2024-04-25T04:56:11.404Z,94131.00
2024-04-25T04:57:11.368Z,94129.00
2024-04-25T04:58:11.369Z,94132.00
2024-04-25T04:59:11.978Z,94129.00
2024-04-25T05:00:11.396Z,94133.00
2024-04-25T05:01:11.484Z,94131.00
2024-04-25T05:02:11.483Z,94133.00
2024-04-25T05:03:11.550Z,94133.00
2024-04-25T05:04:11.517Z,94134.00
2024-04-25T05:05:11.538Z,94137.00
2024-04-25T05:06:11.582Z,94135.00
2024-04-25T05:07:11.601Z,94134.00
2024-04-25T05:08:11.655Z,94134.00
2024-04-25T05:09:11.675Z,94134.00
2024-04-25T05:10:11.726Z,94134.00
2024-04-25T05:11:11.804Z,94134.00
2024-04-25T05:12:11.834Z,94133.00
2024-04-25T05:13:11.853Z,94134.00
2024-04-25T05:14:11.964Z,94132.00
2024-04-25T05:15:12.025Z,94135.00
2024-04-25T05:16:12.222Z,94134.00
2024-04-25T05:17:12.253Z,94133.00
2024-04-25T05:18:12.318Z,94133.00
2024-04-25T05:19:12.391Z,94133.00
2024-04-25T05:20:12.517Z,94136.00
2024-04-25T05:21:12.597Z,94136.00
2024-04-25T05:22:12.643Z,94136.00
2024-04-25T05:23:12.768Z,94136.00
2024-04-25T05:24:12.836Z,94135.00
2024-04-25T05:25:12.936Z,94136.00
2024-04-25T05:26:13.061Z,94138.00
2024-04-25T05:27:13.112Z,94137.00
2024-04-25T05:28:13.211Z,94136.00
2024-04-25T05:29:13.302Z,94140.00
2024-04-25T05:30:13.378Z,94138.00
2024-04-25T05:31:13.443Z,94140.00
2024-04-25T05:32:13.579Z,94138.00
2024-04-25T05:33:13.755Z,94139.00
2024-04-25T05:34:13.730Z,94140.00
2024-04-25T05:35:13.833Z,94142.00
2024-04-25T05:36:13.925Z,94140.00
2024-04-25T05:37:13.949Z,94142.00
2024-04-25T05:38:14.063Z,94144.00
2024-04-25T05:39:14.163Z,94145.00
2024-04-25T05:40:14.207Z,94145.00
2024-04-25T05:41:14.332Z,94146.00
2024-04-25T05:42:14.383Z,94146.00
2024-04-25T05:43:14.623Z,94149.00
2024-04-25T05:44:14.598Z,94142.00
2024-04-25T05:45:14.651Z,94143.00
2024-04-25T05:46:14.769Z,94142.00
2024-04-25T05:47:14.914Z,94140.00
2024-04-25T05:48:15.102Z,94147.00
2024-04-25T05:49:15.026Z,94144.00
2024-04-25T05:50:15.128Z,94144.00
2024-04-25T05:51:15.149Z,94144.00
2024-04-25T05:52:15.201Z,94144.00
2024-04-25T05:53:15.293Z,94146.00
2024-04-25T05:54:15.338Z,94147.00
2024-04-25T05:55:15.422Z,94148.00
2024-04-25T05:56:15.498Z,94148.00
2024-04-25T05:57:15.561Z,94145.00
2024-04-25T05:58:15.615Z,94145.00
2024-04-25T05:59:15.677Z,94146.00
2024-04-25T06:00:15.729Z,94144.00
2024-04-25T06:01:15.854Z,94142.00
2024-04-25T06:02:15.899Z,94141.00
2024-04-25T06:03:16.050Z,94140.00
2024-04-25T06:04:16.023Z,94140.00
2024-04-25T06:05:16.140Z,94141.00
2024-04-25T06:06:16.217Z,94142.00
2024-04-25T06:07:16.285Z,94143.00
2024-04-25T06:08:16.452Z,94144.00
2024-04-25T06:09:16.462Z,94147.00
2024-04-25T06:10:16.543Z,94148.00
2024-04-25T06:11:16.938Z,94148.00
2024-04-25T06:12:16.836Z,94147.00
2024-04-25T06:13:16.799Z,94147.00
2024-04-25T06:14:16.881Z,94150.00
2024-04-25T06:15:17.004Z,94147.00
2024-04-25T06:16:17.190Z,94148.00
2024-04-25T06:17:17.241Z,94150.00
2024-04-25T06:18:17.311Z,94150.00
2024-04-25T06:19:17.315Z,94150.00
2024-04-25T06:20:17.431Z,94149.00
2024-04-25T06:21:17.486Z,94147.00
2024-04-25T06:22:17.558Z,94148.00
2024-04-25T06:23:17.660Z,94146.00
2024-04-25T06:24:17.695Z,94145.00
2024-04-25T06:25:17.789Z,94145.00
2024-04-25T06:26:17.906Z,94144.00
2024-04-25T06:27:17.992Z,94142.00
2024-04-25T06:28:18.068Z,94145.00
2024-04-25T06:29:18.253Z,94143.00
2024-04-25T06:30:18.243Z,94143.00
2024-04-25T06:31:18.342Z,94144.00
2024-04-25T06:32:18.599Z,94144.00
2024-04-25T06:33:18.747Z,94143.00
2024-04-25T06:34:18.591Z,94142.00
2024-04-25T06:35:18.744Z,94142.00
2024-04-25T06:36:18.829Z,94140.00
2024-04-25T06:37:18.890Z,94142.00
2024-04-25T06:38:18.997Z,94138.00
2024-04-25T06:39:19.053Z,94138.00
2024-04-25T06:40:19.166Z,94137.00
2024-04-25T06:41:19.285Z,94136.00
2024-04-25T06:42:19.477Z,94135.00
2024-04-25T06:43:19.431Z,94136.00
2024-04-25T06:44:28.920Z,94136.00
2024-04-25T06:45:20.556Z,94136.00
2024-04-25T06:46:19.560Z,94141.00
2024-04-25T06:47:19.554Z,94135.00
2024-04-25T06:48:19.656Z,94135.00
2024-04-25T06:49:19.611Z,94138.00
2024-04-25T06:50:19.563Z,94140.00
2024-04-25T06:51:19.547Z,94136.00
2024-04-25T06:52:19.524Z,94137.00
2024-04-25T06:53:19.552Z,94136.00
2024-04-25T06:54:19.567Z,94136.00
2024-04-25T06:55:19.643Z,94137.00
2024-04-25T06:56:19.776Z,94139.00
2024-04-25T06:57:19.852Z,94139.00
2024-04-25T06:58:19.954Z,94139.00
2024-04-25T06:59:20.132Z,94137.00
2024-04-25T07:00:20.194Z,94137.00
2024-04-25T07:01:20.318Z,94136.00
2024-04-25T07:02:20.527Z,94135.00
2024-04-25T07:03:20.458Z,94140.00
2024-04-25T07:04:20.559Z,94137.00
2024-04-25T07:05:20.682Z,94136.00
2024-04-25T07:06:20.800Z,94133.00
2024-04-25T07:07:20.871Z,94131.00
2024-04-25T07:08:21.013Z,94132.00
2024-04-25T07:09:21.152Z,94134.00
2024-04-25T07:10:21.217Z,94132.00
2024-04-25T07:11:21.384Z,94131.00
2024-04-25T07:12:21.415Z,94133.00
2024-04-25T07:13:21.496Z,94131.00
2024-04-25T07:14:21.641Z,94133.00
2024-04-25T07:15:21.689Z,94130.00
2024-04-25T07:16:21.841Z,94128.00
2024-04-25T07:17:21.964Z,94127.00
2024-04-25T07:18:22.110Z,94127.00
2024-04-25T07:19:22.111Z,94129.00
2024-04-25T07:20:22.257Z,94129.00
2024-04-25T07:21:22.355Z,94128.00
2024-04-25T07:22:22.463Z,94127.00
2024-04-25T07:23:22.621Z,94127.00
2024-04-25T07:24:22.664Z,94129.00
2024-04-25T07:25:22.793Z,94128.00
2024-04-25T07:26:22.924Z,94126.00
2024-04-25T07:27:22.989Z,94125.00
2024-04-25T07:28:23.090Z,94126.00
2024-04-25T07:29:23.217Z,94124.00
2024-04-25T07:30:23.278Z,94121.00
2024-04-25T07:31:23.453Z,94120.00
2024-04-25T07:32:23.701Z,94117.00
2024-04-25T07:33:23.856Z,94118.00
2024-04-25T07:34:23.807Z,94118.00
2024-04-25T07:35:23.925Z,94116.00
2024-04-25T07:36:24.086Z,94114.00
2024-04-25T07:37:24.150Z,94116.00
2024-04-25T07:38:24.315Z,94116.00
2024-04-25T07:39:24.384Z,94115.00
2024-04-25T07:40:24.487Z,94113.00
2024-04-25T07:41:24.640Z,94119.00
2024-04-25T07:42:24.696Z,94119.00
2024-04-25T07:43:24.849Z,94111.00
2024-04-25T07:44:24.971Z,94109.00
2024-04-25T07:45:25.059Z,94113.00
2024-04-25T07:46:25.221Z,94114.00
2024-04-25T07:47:25.477Z,94109.00
2024-04-25T07:48:25.530Z,94111.00
2024-04-25T07:49:25.593Z,94107.00
2024-04-25T07:50:25.750Z,94111.00
2024-04-25T07:51:25.822Z,94110.00
2024-04-25T07:52:29.114Z,94104.00
2024-04-25T07:53:25.920Z,94104.00
2024-04-25T07:54:25.938Z,94103.00
2024-04-25T07:55:25.909Z,94100.00
2024-04-25T07:56:25.978Z,94100.00
2024-04-25T07:57:25.888Z,94101.00
2024-04-25T07:58:25.898Z,94096.00
2024-04-25T07:59:25.958Z,94095.00
2024-04-25T08:00:25.927Z,94094.00
2024-04-25T08:01:25.907Z,94089.00
2024-04-25T08:02:25.977Z,94088.00
2024-04-25T08:03:26.373Z,94087.00
2024-04-25T08:04:25.998Z,94087.00
2024-04-25T08:05:25.916Z,94085.00
2024-04-25T08:06:25.904Z,94083.00
2024-04-25T08:07:25.949Z,94085.00
2024-04-25T08:08:26.394Z,94085.00
2024-04-25T08:09:25.889Z,94084.00
2024-04-25T08:10:25.982Z,94084.00
2024-04-25T08:11:26.015Z,94081.00
2024-04-25T08:12:25.954Z,94080.00
2024-04-25T08:13:26.028Z,94077.00
2024-04-25T08:14:25.978Z,94080.00
2024-04-25T08:15:25.935Z,94081.00
2024-04-25T08:16:26.000Z,94084.00
2024-04-25T08:17:25.981Z,94084.00
2024-04-25T08:18:26.015Z,94082.00
2024-04-25T08:19:25.932Z,94084.00
2024-04-25T08:20:27.331Z,94082.00
2024-04-25T08:21:25.959Z,94082.00
2024-04-25T08:22:25.939Z,94082.00
2024-04-25T08:23:25.980Z,94081.00
2024-04-25T08:24:25.965Z,94086.00
2024-04-25T08:25:25.948Z,94082.00
2024-04-25T08:26:25.992Z,94083.00
2024-04-25T08:27:25.945Z,94083.00
2024-04-25T08:28:25.987Z,94084.00
2024-04-25T08:29:25.981Z,94085.00
2024-04-25T08:30:26.050Z,94084.00
2024-04-25T08:31:26.026Z,94085.00
2024-04-25T08:32:26.625Z,94088.00
2024-04-25T08:33:26.017Z,94086.00
2024-04-25T08:34:26.106Z,94085.00
2024-04-25T08:35:26.157Z,94084.00
2024-04-25T08:36:26.139Z,94083.00
2024-04-25T08:37:26.201Z,94085.00
2024-04-25T08:38:26.356Z,94086.00
2024-04-25T08:39:26.395Z,94078.00
2024-04-25T08:40:26.502Z,94081.00
2024-04-25T08:41:26.637Z,94079.00
2024-04-25T08:42:26.710Z,94082.00
2024-04-25T08:43:26.813Z,94081.00
2024-04-25T08:44:26.922Z,94080.00
2024-04-25T08:45:27.046Z,94079.00
2024-04-25T08:46:27.140Z,94076.00
2024-04-25T08:47:27.227Z,94076.00
2024-04-25T08:48:27.362Z,94077.00
2024-04-25T08:49:27.377Z,94076.00
2024-04-25T08:50:27.531Z,94075.00
2024-04-25T08:51:27.606Z,94074.00
2024-04-25T08:52:27.624Z,94070.00
2024-04-25T08:53:27.760Z,94073.00
2024-04-25T08:54:27.821Z,94070.00
2024-04-25T08:55:27.905Z,94070.00
2024-04-25T08:56:27.945Z,94069.00
2024-04-25T08:57:28.042Z,94068.00
2024-04-25T08:58:28.111Z,94067.00
2024-04-25T08:59:28.202Z,94064.00
2024-04-25T09:00:28.218Z,94066.00
2024-04-25T09:01:28.312Z,94067.00
2024-04-25T09:02:28.461Z,94069.00
2024-04-25T09:03:28.546Z,94068.00
2024-04-25T09:04:28.532Z,94064.00
2024-04-25T09:05:28.646Z,94064.00
2024-04-25T09:06:29.699Z,94068.00
2024-04-25T09:07:28.750Z,94064.00
2024-04-25T09:08:28.856Z,94064.00
2024-04-25T09:09:28.898Z,94065.00
2024-04-25T09:10:28.988Z,94064.00
2024-04-25T09:11:29.120Z,94062.00
2024-04-25T09:12:29.224Z,94063.00
2024-04-25T09:13:29.304Z,94062.00
2024-04-25T09:14:29.347Z,94062.00
2024-04-25T09:15:29.471Z,94059.00
2024-04-25T09:16:29.629Z,94061.00
2024-04-25T09:17:29.760Z,94062.00
2024-04-25T09:18:29.825Z,94055.00
2024-04-25T09:19:29.869Z,94057.00
2024-04-25T09:20:30.123Z,94059.00
2024-04-25T09:21:30.077Z,94056.00
2024-04-25T09:22:30.142Z,94054.00
2024-04-25T09:23:30.244Z,94057.00
2024-04-25T09:24:30.310Z,94054.00
2024-04-25T09:25:30.402Z,94054.00
2024-04-25T09:26:30.529Z,94054.00
2024-04-25T09:27:30.616Z,94052.00
2024-04-25T09:28:33.162Z,94052.00
2024-04-25T09:29:31.711Z,94049.00
2024-04-25T09:30:30.687Z,94052.00
2024-04-25T09:31:30.719Z,94051.00
2024-04-25T09:32:31.638Z,94046.00
2024-04-25T09:33:30.838Z,94049.00
2024-04-25T09:34:30.711Z,94045.00
2024-04-25T09:35:30.713Z,94044.00
2024-04-25T09:36:30.705Z,94042.00
2024-04-25T09:37:30.684Z,94041.00
2024-04-25T09:38:30.757Z,94041.00
2024-04-25T09:39:30.749Z,94039.00
2024-04-25T09:40:30.774Z,94037.00
2024-04-25T09:41:30.757Z,94036.00
2024-04-25T09:42:30.732Z,94035.00
2024-04-25T09:43:30.726Z,94033.00
2024-04-25T09:44:30.811Z,94037.00
2024-04-25T09:45:30.839Z,94035.00
2024-04-25T09:46:31.002Z,94033.00
2024-04-25T09:47:31.087Z,94031.00
2024-04-25T09:48:31.114Z,94030.00
2024-04-25T09:49:31.179Z,94030.00
2024-04-25T09:50:31.304Z,94028.00
2024-04-25T09:51:31.311Z,94028.00
2024-04-25T09:52:31.433Z,94029.00
2024-04-25T09:53:31.898Z,94032.00
2024-04-25T09:54:31.514Z,94028.00
2024-04-25T09:55:31.601Z,94030.00
2024-04-25T09:56:31.872Z,94029.00
2024-04-25T09:57:31.831Z,94027.00
2024-04-25T09:58:31.908Z,94024.00
2024-04-25T09:59:32.024Z,94022.00
2024-04-25T10:00:32.118Z,94023.00
2024-04-25T10:01:32.250Z,94022.00
2024-04-25T10:02:32.418Z,94023.00
2024-04-25T10:03:32.424Z,94022.00
2024-04-25T10:04:35.382Z,94022.00
2024-04-25T10:05:32.552Z,94023.00
2024-04-25T10:06:32.530Z,94023.00
2024-04-25T10:07:32.543Z,94023.00
2024-04-25T10:08:32.526Z,94021.00
2024-04-25T10:09:32.541Z,94021.00
2024-04-25T10:10:32.514Z,94020.00
2024-04-25T10:11:32.664Z,94018.00
2024-04-25T10:12:32.509Z,94020.00
2024-04-25T10:13:32.557Z,94020.00
2024-04-25T10:14:32.648Z,94018.00
2024-04-25T10:15:32.548Z,94021.00
2024-04-25T10:16:32.594Z,94019.00
2024-04-25T10:17:32.637Z,94019.00
2024-04-25T10:18:32.657Z,94017.00
2024-04-25T10:19:32.558Z,94016.00
2024-04-25T10:20:32.551Z,94012.00
2024-04-25T10:21:32.577Z,94009.00
2024-04-25T10:22:34.392Z,94009.00
2024-04-25T10:23:32.563Z,94008.00
2024-04-25T10:24:32.531Z,94009.00
2024-04-25T10:25:32.544Z,94006.00
2024-04-25T10:26:32.560Z,94005.00
2024-04-25T10:27:32.556Z,94004.00
2024-04-25T10:28:32.549Z,94002.00
2024-04-25T10:29:32.559Z,94002.00
2024-04-25T10:30:32.596Z,94003.00
2024-04-25T10:31:32.649Z,94000.00
2024-04-25T10:32:32.866Z,94001.00
2024-04-25T10:33:32.869Z,93996.00
2024-04-25T10:34:32.766Z,93998.00
2024-04-25T10:35:32.884Z,93998.00
2024-04-25T10:36:33.215Z,93993.00
2024-04-25T10:37:33.066Z,93989.00
2024-04-25T10:38:33.594Z,93996.00
2024-04-25T10:39:33.214Z,93992.00
2024-04-25T10:40:33.351Z,93989.00
2024-04-25T10:41:33.458Z,93990.00
2024-04-25T10:42:33.503Z,93986.00
2024-04-25T10:43:33.616Z,93986.00
2024-04-25T10:44:33.745Z,93986.00
2024-04-25T10:45:34.091Z,93984.00
2024-04-25T10:46:33.928Z,93982.00
2024-04-25T10:47:34.060Z,93982.00
2024-04-25T10:48:34.370Z,93980.00
2024-04-25T10:49:34.145Z,93983.00
2024-04-25T10:50:34.244Z,93977.00
2024-04-25T10:51:34.288Z,93976.00
2024-04-25T10:52:34.399Z,93972.00
2024-04-25T10:53:34.482Z,93972.00
2024-04-25T10:54:34.523Z,93969.00
2024-04-25T10:55:34.625Z,93966.00
2024-04-25T10:56:34.746Z,93963.00
2024-04-25T10:57:34.792Z,93964.00
2024-04-25T10:58:34.859Z,93964.00
2024-04-25T10:59:34.990Z,93962.00
2024-04-25T11:00:35.041Z,93958.00
2024-04-25T11:01:35.119Z,93960.00
2024-04-25T11:02:35.417Z,93958.00
2024-04-25T11:03:35.290Z,93956.00
2024-04-25T11:04:35.461Z,93955.00
2024-04-25T11:05:35.410Z,93958.00
2024-04-25T11:06:35.539Z,93955.00
2024-04-25T11:07:35.577Z,93953.00
2024-04-25T11:08:35.660Z,93950.00
2024-04-25T11:09:35.692Z,93950.00
2024-04-25T11:10:35.762Z,93946.00
2024-04-25T11:11:35.925Z,93945.00
2024-04-25T11:12:35.907Z,93943.00
2024-04-25T11:13:35.975Z,93943.00
2024-04-25T11:14:36.119Z,93945.00
2024-04-25T11:15:36.149Z,93940.00
2024-04-25T11:16:36.247Z,93939.00
2024-04-25T11:17:42.948Z,93947.00
2024-04-25T11:18:37.452Z,93944.00
2024-04-25T11:19:43.420Z,93943.00
2024-04-25T11:20:37.628Z,93943.00
2024-04-25T11:21:36.407Z,93944.00
2024-04-25T11:22:45.240Z,93942.00
2024-04-25T11:23:37.471Z,93941.00
2024-04-25T11:24:36.450Z,93939.00
2024-04-25T11:25:36.339Z,93935.00
2024-04-25T11:26:36.343Z,93936.00
2024-04-25T11:27:36.341Z,93937.00
2024-04-25T11:28:36.391Z,93934.00
2024-04-25T11:29:36.360Z,93934.00
2024-04-25T11:30:36.978Z,93931.00
2024-04-25T11:31:36.345Z,93928.00
2024-04-25T11:32:36.547Z,93925.00
2024-04-25T11:33:36.456Z,93923.00
2024-04-25T11:34:36.362Z,93921.00
2024-04-25T11:35:36.417Z,93917.00
2024-04-25T11:36:36.385Z,93918.00
2024-04-25T11:37:36.441Z,93919.00
2024-04-25T11:38:36.581Z,93918.00
2024-04-25T11:39:39.258Z,93919.00
2024-04-25T11:40:36.665Z,93918.00
2024-04-25T11:41:36.768Z,93913.00
2024-04-25T11:42:36.711Z,93910.00
2024-04-25T11:43:36.676Z,93911.00
2024-04-25T11:44:36.713Z,93909.00
2024-04-25T11:45:36.660Z,93909.00